sensor_id;sensor_type;location;lat;lon;timestamp;pressure;altitude;pressure_sealevel;temperature;humidity
44359;BME280;30077;52.474;13.326;2022-11-20T00:00:45;100514.78;;;0.34;100.00
44359;BME280;30077;52.474;13.326;2022-11-20T00:05:45;100508.66;;;0.37;100.00
44359;BME280;30077;52.474;13.326;2022-11-20T00:10:46;100501.66;;;0.34;100.00
44359;BME280;30077;52.474;13.326;2022-11-20T00:15:46;100506.03;;;0.32;100.00
44359;BME280;30077;52.474;13.326;2022-11-20T00:20:46;100503.38;;;0.38;100.00
44359;BME280;30077;52.474;13.326;2022-11-20T00:25:46;100509.50;;;0.36;100.00
44359;BME280;30077;52.474;13.326;2022-11-20T00:30:48;100506.91;;;0.34;100.00
44359;BME280;30077;52.474;13.326;2022-11-20T00:35:48;100498.16;;;0.32;100.00
44359;BME280;30077;52.474;13.326;2022-11-20T00:40:54;100511.31;;;0.29;100.00
44359;BME280;30077;52.474;13.326;2022-11-20T00:50:59;100506.06;;;0.29;100.00
44359;BME280;30077;52.474;13.326;2022-11-20T00:56:06;100503.44;;;0.29;100.00
44359;BME280;30077;52.474;13.326;2022-11-20T01:01:14;100503.47;;;0.26;100.00
44359;BME280;30077;52.474;13.326;2022-11-20T01:06:18;100510.44;;;0.30;100.00
44359;BME280;30077;52.474;13.326;2022-11-20T01:11:21;100509.53;;;0.33;100.00
44359;BME280;30077;52.474;13.326;2022-11-20T01:16:34;100503.38;;;0.38;100.00
44359;BME280;30077;52.474;13.326;2022-11-20T01:21:37;100505.97;;;0.43;100.00
44359;BME280;30077;52.474;13.326;2022-11-20T01:26:39;100502.50;;;0.41;100.00
44359;BME280;30077;52.474;13.326;2022-11-20T01:31:40;100498.09;;;0.41;100.00
44359;BME280;30077;52.474;13.326;2022-11-20T01:36:41;100497.22;;;0.44;100.00
44359;BME280;30077;52.474;13.326;2022-11-20T01:41:43;100494.59;;;0.45;100.00
44359;BME280;30077;52.474;13.326;2022-11-20T01:47:04;100496.31;;;0.46;100.00
44359;BME280;30077;52.474;13.326;2022-11-20T01:52:18;100496.31;;;0.43;100.00
44359;BME280;30077;52.474;13.326;2022-11-20T01:57:20;100484.09;;;0.42;100.00
44359;BME280;30077;52.474;13.326;2022-11-20T02:02:22;100485.91;;;0.34;100.00
44359;BME280;30077;52.474;13.326;2022-11-20T02:07:23;100484.19;;;0.33;100.00
44359;BME280;30077;52.474;13.326;2022-11-20T02:12:23;100477.22;;;0.29;100.00
44359;BME280;30077;52.474;13.326;2022-11-20T02:17:46;100477.16;;;0.32;100.00
44359;BME280;30077;52.474;13.326;2022-11-20T02:23:10;100474.59;;;0.26;100.00
44359;BME280;30077;52.474;13.326;2022-11-20T02:28:12;100471.97;;;0.23;100.00
44359;BME280;30077;52.474;13.326;2022-11-20T02:33:12;100463.25;;;0.18;100.00
44359;BME280;30077;52.474;13.326;2022-11-20T02:38:14;100469.41;;;0.14;100.00
44359;BME280;30077;52.474;13.326;2022-11-20T02:43:15;100460.72;;;0.04;100.00
44359;BME280;30077;52.474;13.326;2022-11-20T02:48:16;100457.22;;;0.02;100.00
44359;BME280;30077;52.474;13.326;2022-11-20T02:53:17;100466.88;;;-0.02;100.00
44359;BME280;30077;52.474;13.326;2022-11-20T02:58:17;100464.28;;;-0.06;100.00
44359;BME280;30077;52.474;13.326;2022-11-20T03:03:18;100457.31;;;-0.07;100.00
44359;BME280;30077;52.474;13.326;2022-11-20T03:08:18;100462.53;;;-0.07;100.00
44359;BME280;30077;52.474;13.326;2022-11-20T03:13:21;100458.16;;;-0.07;100.00
44359;BME280;30077;52.474;13.326;2022-11-20T03:18:22;100452.91;;;-0.08;100.00
44359;BME280;30077;52.474;13.326;2022-11-20T03:23:23;100435.41;;;-0.08;100.00
44359;BME280;30077;52.474;13.326;2022-11-20T03:28:23;100438.03;;;-0.08;100.00
44359;BME280;30077;52.474;13.326;2022-11-20T03:33:27;100443.31;;;-0.09;100.00
44359;BME280;30077;52.474;13.326;2022-11-20T03:38:31;100437.22;;;-0.16;100.00
44359;BME280;30077;52.474;13.326;2022-11-20T03:43:33;100438.13;;;-0.20;100.00
44359;BME280;30077;52.474;13.326;2022-11-20T03:48:34;100435.53;;;-0.21;100.00
44359;BME280;30077;52.474;13.326;2022-11-20T03:53:34;100449.50;;;-0.27;100.00
44359;BME280;30077;52.474;13.326;2022-11-20T03:58:36;100443.41;;;-0.25;100.00
44359;BME280;30077;52.474;13.326;2022-11-20T04:03:41;100437.31;;;-0.31;100.00
44359;BME280;30077;52.474;13.326;2022-11-20T04:08:42;100433.84;;;-0.36;100.00
44359;BME280;30077;52.474;13.326;2022-11-20T04:13:46;100433.84;;;-0.39;100.00
44359;BME280;30077;52.474;13.326;2022-11-20T04:18:46;100430.34;;;-0.41;100.00
44359;BME280;30077;52.474;13.326;2022-11-20T04:23:47;100428.59;;;-0.36;100.00
44359;BME280;30077;52.474;13.326;2022-11-20T04:28:48;100435.56;;;-0.32;100.00
44359;BME280;30077;52.474;13.326;2022-11-20T04:33:49;100435.53;;;-0.29;100.00
44359;BME280;30077;52.474;13.326;2022-11-20T04:38:55;100437.28;;;-0.28;100.00
44359;BME280;30077;52.474;13.326;2022-11-20T04:43:57;100437.25;;;-0.22;100.00
44359;BME280;30077;52.474;13.326;2022-11-20T04:49:04;100429.38;;;-0.14;100.00
44359;BME280;30077;52.474;13.326;2022-11-20T04:54:06;100426.72;;;-0.13;100.00
44359;BME280;30077;52.474;13.326;2022-11-20T04:59:06;100426.69;;;-0.08;100.00
44359;BME280;30077;52.474;13.326;2022-11-20T05:04:06;100419.72;;;-0.11;100.00
44359;BME280;30077;52.474;13.326;2022-11-20T05:09:07;100411.00;;;-0.16;100.00
44359;BME280;30077;52.474;13.326;2022-11-20T05:14:10;100397.91;;;-0.14;100.00
44359;BME280;30077;52.474;13.326;2022-11-20T05:19:10;100393.53;;;-0.14;100.00
44359;BME280;30077;52.474;13.326;2022-11-20T05:24:12;100390.00;;;-0.10;100.00
44359;BME280;30077;52.474;13.326;2022-11-20T05:29:14;100391.72;;;-0.09;100.00
44359;BME280;30077;52.474;13.326;2022-11-20T05:34:14;100390.88;;;-0.11;100.00
44359;BME280;30077;52.474;13.326;2022-11-20T05:39:16;100390.88;;;-0.09;100.00
44359;BME280;30077;52.474;13.326;2022-11-20T05:44:16;100392.63;;;-0.10;100.00
44359;BME280;30077;52.474;13.326;2022-11-20T05:49:18;100382.13;;;-0.10;100.00
44359;BME280;30077;52.474;13.326;2022-11-20T05:54:18;100391.72;;;-0.09;100.00
44359;BME280;30077;52.474;13.326;2022-11-20T05:59:18;100384.75;;;-0.07;100.00
44359;BME280;30077;52.474;13.326;2022-11-20T06:04:19;100386.50;;;-0.07;100.00
44359;BME280;30077;52.474;13.326;2022-11-20T06:09:19;100387.38;;;-0.07;100.00
44359;BME280;30077;52.474;13.326;2022-11-20T06:14:20;100388.22;;;-0.08;100.00
44359;BME280;30077;52.474;13.326;2022-11-20T06:19:22;100375.13;;;-0.06;100.00
44359;BME280;30077;52.474;13.326;2022-11-20T06:24:22;100375.09;;;-0.02;100.00
44359;BME280;30077;52.474;13.326;2022-11-20T06:29:23;100374.25;;;-0.04;100.00
44359;BME280;30077;52.474;13.326;2022-11-20T06:34:24;100373.34;;;-0.04;100.00
44359;BME280;30077;52.474;13.326;2022-11-20T06:39:24;100371.56;;;-0.01;100.00
44359;BME280;30077;52.474;13.326;2022-11-20T06:44:25;100381.22;;;-0.03;100.00
44359;BME280;30077;52.474;13.326;2022-11-20T06:49:25;100361.97;;;0.02;100.00
44359;BME280;30077;52.474;13.326;2022-11-20T06:54:25;100366.31;;;0.04;100.00
44359;BME280;30077;52.474;13.326;2022-11-20T06:59:26;100370.66;;;0.07;100.00
44359;BME280;30077;52.474;13.326;2022-11-20T07:04:26;100373.28;;;0.07;100.00
44359;BME280;30077;52.474;13.326;2022-11-20T07:09:26;100368.00;;;0.13;100.00
44359;BME280;30077;52.474;13.326;2022-11-20T07:14:26;100368.88;;;0.15;100.00
44359;BME280;30077;52.474;13.326;2022-11-20T07:19:27;100366.22;;;0.16;100.00
44359;BME280;30077;52.474;13.326;2022-11-20T07:24:28;100373.19;;;0.22;100.00
44359;BME280;30077;52.474;13.326;2022-11-20T07:29:29;100371.44;;;0.19;100.00
44359;BME280;30077;52.474;13.326;2022-11-20T07:34:29;100375.81;;;0.19;100.00
44359;BME280;30077;52.474;13.326;2022-11-20T07:39:29;100369.69;;;0.20;100.00
44359;BME280;30077;52.474;13.326;2022-11-20T07:44:29;100375.75;;;0.25;100.00
44359;BME280;30077;52.474;13.326;2022-11-20T07:49:30;100380.97;;;0.31;100.00
44359;BME280;30077;52.474;13.326;2022-11-20T07:54:30;100370.34;;;0.43;100.00
44359;BME280;30077;52.474;13.326;2022-11-20T07:59:30;100366.75;;;0.57;100.00
44359;BME280;30077;52.474;13.326;2022-11-20T08:04:31;100358.91;;;0.54;100.00
44359;BME280;30077;52.474;13.326;2022-11-20T08:09:32;100363.28;;;0.55;100.00
44359;BME280;30077;52.474;13.326;2022-11-20T08:14:32;100357.94;;;0.64;100.00
44359;BME280;30077;52.474;13.326;2022-11-20T08:19:33;100354.34;;;0.74;100.00
44359;BME280;30077;52.474;13.326;2022-11-20T08:24:33;100354.28;;;0.80;100.00
44359;BME280;30077;52.474;13.326;2022-11-20T08:29:33;100363.72;;;1.00;100.00
44359;BME280;30077;52.474;13.326;2022-11-20T08:34:33;100356.69;;;1.00;100.00
44359;BME280;30077;52.474;13.326;2022-11-20T08:39:33;100347.97;;;0.96;100.00
44359;BME280;30077;52.474;13.326;2022-11-20T08:44:34;100343.78;;;0.80;100.00
44359;BME280;30077;52.474;13.326;2022-11-20T08:49:35;100333.34;;;0.74;100.00
44359;BME280;30077;52.474;13.326;2022-11-20T08:54:37;100343.66;;;0.89;100.00
44359;BME280;30077;52.474;13.326;2022-11-20T08:59:37;100348.75;;;1.05;100.00
44359;BME280;30077;52.474;13.326;2022-11-20T09:04:38;100352.13;;;1.17;100.00
44359;BME280;30077;52.474;13.326;2022-11-20T09:09:39;100343.97;;;1.37;100.00
44359;BME280;30077;52.474;13.326;2022-11-20T09:14:39;100351.84;;;1.40;100.00
44359;BME280;30077;52.474;13.326;2022-11-20T09:19:41;100346.72;;;1.30;100.00
44359;BME280;30077;52.474;13.326;2022-11-20T09:24:41;100353.88;;;1.17;100.00
44359;BME280;30077;52.474;13.326;2022-11-20T09:29:43;100357.50;;;1.07;100.00
44359;BME280;30077;52.474;13.326;2022-11-20T09:34:46;100359.16;;;1.14;100.00
44359;BME280;30077;52.474;13.326;2022-11-20T09:39:47;100352.13;;;1.16;100.00
44359;BME280;30077;52.474;13.326;2022-11-20T09:55:38;100341.03;;;1.62;100.00
44359;BME280;30077;52.474;13.326;2022-11-20T10:00:39;100335.81;;;1.59;100.00
44359;BME280;30077;52.474;13.326;2022-11-20T10:05:44;100334.84;;;1.67;100.00
44359;BME280;30077;52.474;13.326;2022-11-20T10:21:26;100323.78;;;1.42;100.00
44359;BME280;30077;52.474;13.326;2022-11-20T10:26:49;100321.94;;;1.48;100.00
44359;BME280;30077;52.474;13.326;2022-11-20T10:31:59;100321.81;;;1.60;99.88
44359;BME280;30077;52.474;13.326;2022-11-20T10:37:22;100316.28;;;1.78;99.17
44359;BME280;30077;52.474;13.326;2022-11-20T10:42:44;100303.72;;;1.96;98.66
44359;BME280;30077;52.474;13.326;2022-11-20T10:47:45;100301.72;;;2.10;97.08
44359;BME280;30077;52.474;13.326;2022-11-20T10:58:10;100292.38;;;2.45;97.00
44359;BME280;30077;52.474;13.326;2022-11-20T11:03:28;100294.72;;;2.61;94.42
44359;BME280;30077;52.474;13.326;2022-11-20T11:08:34;100289.31;;;2.69;93.40
44359;BME280;30077;52.474;13.326;2022-11-20T11:13:35;100295.13;;;2.85;92.57
44359;BME280;30077;52.474;13.326;2022-11-20T11:18:35;100288.53;;;3.09;91.31
44359;BME280;30077;52.474;13.326;2022-11-20T11:23:38;100289.28;;;3.14;89.91
44359;BME280;30077;52.474;13.326;2022-11-20T11:28:41;100290.94;;;3.18;90.08
44359;BME280;30077;52.474;13.326;2022-11-20T11:33:41;100282.50;;;3.01;91.44
44359;BME280;30077;52.474;13.326;2022-11-20T11:38:42;100275.78;;;2.87;92.78
44359;BME280;30077;52.474;13.326;2022-11-20T11:43:52;100274.38;;;2.68;91.96
44359;BME280;30077;52.474;13.326;2022-11-20T11:49:16;100266.75;;;2.54;93.70
44359;BME280;30077;52.474;13.326;2022-11-20T11:54:24;100270.50;;;2.41;97.27
44359;BME280;30077;52.474;13.326;2022-11-20T11:59:43;100270.50;;;2.41;97.45
44359;BME280;30077;52.474;13.326;2022-11-20T12:04:54;100266.09;;;2.41;98.23
44359;BME280;30077;52.474;13.326;2022-11-20T12:09:58;100254.75;;;2.38;98.70
44359;BME280;30077;52.474;13.326;2022-11-20T12:14:59;100251.81;;;2.55;99.04
44359;BME280;30077;52.474;13.326;2022-11-20T12:19:59;100253.31;;;2.68;96.19
44359;BME280;30077;52.474;13.326;2022-11-20T12:30:11;100240.13;;;2.68;95.50
44359;BME280;30077;52.474;13.326;2022-11-20T12:40:49;100233.25;;;2.61;93.44
44359;BME280;30077;52.474;13.326;2022-11-20T12:56:50;100225.75;;;1.91;99.81
44359;BME280;30077;52.474;13.326;2022-11-20T13:07:24;100220.13;;;1.59;100.00
44359;BME280;30077;52.474;13.326;2022-11-20T13:12:45;100219.19;;;1.64;100.00
44359;BME280;30077;52.474;13.326;2022-11-20T13:17:58;100216.84;;;1.44;100.00
44359;BME280;30077;52.474;13.326;2022-11-20T13:22:59;100209.97;;;1.34;100.00
44359;BME280;30077;52.474;13.326;2022-11-20T13:33:23;100210.69;;;1.47;100.00
44359;BME280;30077;52.474;13.326;2022-11-20T13:38:25;100200.00;;;1.58;100.00
44359;BME280;30077;52.474;13.326;2022-11-20T13:43:37;100197.31;;;1.61;100.00
44359;BME280;30077;52.474;13.326;2022-11-20T13:48:43;100206.00;;;1.67;100.00
44359;BME280;30077;52.474;13.326;2022-11-20T13:53:58;100188.38;;;1.73;100.00
44359;BME280;30077;52.474;13.326;2022-11-20T14:04:08;100200.78;;;1.63;100.00
44359;BME280;30077;52.474;13.326;2022-11-20T14:09:27;100206.03;;;1.63;100.00
44359;BME280;30077;52.474;13.326;2022-11-20T14:14:30;100216.50;;;1.66;100.00
44359;BME280;30077;52.474;13.326;2022-11-20T14:19:30;100205.25;;;1.58;100.00
44359;BME280;30077;52.474;13.326;2022-11-20T14:24:30;100203.66;;;1.49;100.00
44359;BME280;30077;52.474;13.326;2022-11-20T14:29:37;100201.03;;;1.48;100.00
44359;BME280;30077;52.474;13.326;2022-11-20T14:34:40;100205.53;;;1.39;100.00
44359;BME280;30077;52.474;13.326;2022-11-20T14:39:46;100214.34;;;1.37;100.00
44359;BME280;30077;52.474;13.326;2022-11-20T14:44:49;100216.22;;;1.29;100.00
44359;BME280;30077;52.474;13.326;2022-11-20T14:49:51;100208.41;;;1.24;100.00
44359;BME280;30077;52.474;13.326;2022-11-20T14:54:54;100204.94;;;1.19;100.00
44359;BME280;30077;52.474;13.326;2022-11-20T15:00:06;100201.56;;;1.11;100.00
44359;BME280;30077;52.474;13.326;2022-11-20T15:05:07;100197.31;;;1.02;100.00
44359;BME280;30077;52.474;13.326;2022-11-20T15:10:28;100205.16;;;1.04;100.00
44359;BME280;30077;52.474;13.326;2022-11-20T15:15:36;100206.00;;;1.07;100.00
44359;BME280;30077;52.474;13.326;2022-11-20T15:20:40;100196.34;;;1.08;100.00
44359;BME280;30077;52.474;13.326;2022-11-20T15:25:41;100183.22;;;1.08;100.00
44359;BME280;30077;52.474;13.326;2022-11-20T15:30:41;100187.72;;;1.00;100.00
44359;BME280;30077;52.474;13.326;2022-11-20T15:35:42;100180.75;;;0.99;100.00
44359;BME280;30077;52.474;13.326;2022-11-20T15:40:43;100180.72;;;1.00;100.00
44359;BME280;30077;52.474;13.326;2022-11-20T15:45:51;100179.09;;;0.91;100.00
44359;BME280;30077;52.474;13.326;2022-11-20T15:56:13;100181.84;;;0.79;100.00
44359;BME280;30077;52.474;13.326;2022-11-20T16:01:17;100174.69;;;0.90;100.00
44359;BME280;30077;52.474;13.326;2022-11-20T16:06:19;100165.97;;;0.90;100.00
44359;BME280;30077;52.474;13.326;2022-11-20T16:11:20;100165.41;;;0.65;100.00
44359;BME280;30077;52.474;13.326;2022-11-20T16:16:25;100161.38;;;0.38;100.00
44359;BME280;30077;52.474;13.326;2022-11-20T16:21:28;100159.84;;;0.18;100.00
44359;BME280;30077;52.474;13.326;2022-11-20T16:26:32;100159.09;;;0.06;100.00
44359;BME280;30077;52.474;13.326;2022-11-20T16:31:33;100162.66;;;-0.02;100.00
44359;BME280;30077;52.474;13.326;2022-11-20T16:36:34;100161.88;;;-0.11;100.00
44359;BME280;30077;52.474;13.326;2022-11-20T16:41:35;100154.06;;;-0.16;100.00
44359;BME280;30077;52.474;13.326;2022-11-20T16:46:36;100162.00;;;-0.23;100.00
44359;BME280;30077;52.474;13.326;2022-11-20T16:51:37;100164.69;;;-0.28;100.00
44359;BME280;30077;52.474;13.326;2022-11-20T16:56:37;100161.16;;;-0.27;100.00
44359;BME280;30077;52.474;13.326;2022-11-20T17:01:38;100167.31;;;-0.31;100.00
44359;BME280;30077;52.474;13.326;2022-11-20T17:06:42;100163.00;;;-0.35;100.00
44359;BME280;30077;52.474;13.326;2022-11-20T17:11:44;100163.03;;;-0.38;100.00
44359;BME280;30077;52.474;13.326;2022-11-20T17:16:44;100165.66;;;-0.41;100.00
44359;BME280;30077;52.474;13.326;2022-11-20T17:21:44;100157.81;;;-0.40;100.00
44359;BME280;30077;52.474;13.326;2022-11-20T17:26:45;100162.06;;;-0.30;100.00
44359;BME280;30077;52.474;13.326;2022-11-20T17:31:47;100161.09;;;-0.18;100.00
44359;BME280;30077;52.474;13.326;2022-11-20T17:36:50;100154.84;;;-0.06;100.00
44359;BME280;30077;52.474;13.326;2022-11-20T17:41:51;100165.22;;;0.06;100.00
44359;BME280;30077;52.474;13.326;2022-11-20T17:47:09;100152.94;;;0.11;100.00
44359;BME280;30077;52.474;13.326;2022-11-20T17:52:11;100152.84;;;0.19;100.00
44359;BME280;30077;52.474;13.326;2022-11-20T17:57:11;100145.81;;;0.21;100.00
44359;BME280;30077;52.474;13.326;2022-11-20T18:02:30;100143.28;;;0.15;100.00
44359;BME280;30077;52.474;13.326;2022-11-20T18:07:30;100147.84;;;-0.03;100.00
44359;BME280;30077;52.474;13.326;2022-11-20T18:12:30;100127.88;;;-0.19;100.00
44359;BME280;30077;52.474;13.326;2022-11-20T18:17:31;100128.03;;;-0.33;100.00
44359;BME280;30077;52.474;13.326;2022-11-20T18:22:31;100126.31;;;-0.38;100.00
44359;BME280;30077;52.474;13.326;2022-11-20T18:27:31;100122.06;;;-0.47;100.00
44359;BME280;30077;52.474;13.326;2022-11-20T18:32:34;100114.22;;;-0.55;100.00
44359;BME280;30077;52.474;13.326;2022-11-20T18:37:35;100121.28;;;-0.63;100.00
44359;BME280;30077;52.474;13.326;2022-11-20T18:42:36;100116.13;;;-0.69;100.00
44359;BME280;30077;52.474;13.326;2022-11-20T18:48:05;100126.66;;;-0.78;100.00
44359;BME280;30077;52.474;13.326;2022-11-20T18:53:08;100116.19;;;-0.81;100.00
44359;BME280;30077;52.474;13.326;2022-11-20T18:58:08;100119.72;;;-0.85;100.00
44359;BME280;30077;52.474;13.326;2022-11-20T19:03:09;100111.06;;;-0.90;100.00
44359;BME280;30077;52.474;13.326;2022-11-20T19:08:09;100110.19;;;-0.95;100.00
44359;BME280;30077;52.474;13.326;2022-11-20T19:13:13;100106.72;;;-0.96;100.00
44359;BME280;30077;52.474;13.326;2022-11-20T19:18:16;100116.31;;;-0.97;100.00
44359;BME280;30077;52.474;13.326;2022-11-20T19:23:17;100123.34;;;-1.02;100.00
44359;BME280;30077;52.474;13.326;2022-11-20T19:28:21;100120.75;;;-1.05;100.00
44359;BME280;30077;52.474;13.326;2022-11-20T19:33:21;100112.03;;;-1.08;100.00
44359;BME280;30077;52.474;13.326;2022-11-20T19:38:26;100119.91;;;-1.13;100.00
44359;BME280;30077;52.474;13.326;2022-11-20T19:43:26;100117.28;;;-1.13;100.00
44359;BME280;30077;52.474;13.326;2022-11-20T19:48:32;100119.00;;;-1.04;100.00
44359;BME280;30077;52.474;13.326;2022-11-20T19:53:33;100116.31;;;-0.93;100.00
44359;BME280;30077;52.474;13.326;2022-11-20T19:58:33;100113.66;;;-0.89;100.00
44359;BME280;30077;52.474;13.326;2022-11-20T20:03:34;100114.47;;;-0.82;100.00
44359;BME280;30077;52.474;13.326;2022-11-20T20:08:35;100100.44;;;-0.75;100.00
44359;BME280;30077;52.474;13.326;2022-11-20T20:13:36;100096.97;;;-0.77;100.00
44359;BME280;30077;52.474;13.326;2022-11-20T20:18:36;100103.13;;;-0.83;100.00
44359;BME280;30077;52.474;13.326;2022-11-20T20:23:36;100097.97;;;-0.90;100.00
44359;BME280;30077;52.474;13.326;2022-11-20T20:28:39;100084.91;;;-0.97;100.00
44359;BME280;30077;52.474;13.326;2022-11-20T20:33:41;100081.47;;;-1.05;100.00
44359;BME280;30077;52.474;13.326;2022-11-20T20:38:42;100073.69;;;-1.12;100.00
44359;BME280;30077;52.474;13.326;2022-11-20T20:43:43;100060.59;;;-1.17;100.00
44359;BME280;30077;52.474;13.326;2022-11-20T20:49:02;100055.44;;;-1.26;100.00
44359;BME280;30077;52.474;13.326;2022-11-20T20:54:04;100060.69;;;-1.26;100.00
44359;BME280;30077;52.474;13.326;2022-11-20T20:59:07;100057.22;;;-1.31;100.00
44359;BME280;30077;52.474;13.326;2022-11-20T21:04:08;100060.69;;;-1.26;100.00
44359;BME280;30077;52.474;13.326;2022-11-20T21:09:12;100058.09;;;-1.29;100.00
44359;BME280;30077;52.474;13.326;2022-11-20T21:14:13;100053.75;;;-1.33;100.00
44359;BME280;30077;52.474;13.326;2022-11-20T21:19:13;100035.41;;;-1.32;100.00
44359;BME280;30077;52.474;13.326;2022-11-20T21:24:16;100038.06;;;-1.33;100.00
44359;BME280;30077;52.474;13.326;2022-11-20T21:29:20;100035.47;;;-1.39;100.00
44359;BME280;30077;52.474;13.326;2022-11-20T21:34:22;100022.44;;;-1.44;100.00
44359;BME280;30077;52.474;13.326;2022-11-20T21:39:23;100010.28;;;-1.54;100.00
44359;BME280;30077;52.474;13.326;2022-11-20T21:44:23;100016.44;;;-1.61;100.00
44359;BME280;30077;52.474;13.326;2022-11-20T21:49:23;100001.66;;;-1.70;100.00
44359;BME280;30077;52.474;13.326;2022-11-20T21:54:27;100001.66;;;-1.70;100.00
44359;BME280;30077;52.474;13.326;2022-11-20T21:59:31;100005.16;;;-1.71;100.00
44359;BME280;30077;52.474;13.326;2022-11-20T22:04:34;99994.72;;;-1.74;100.00
44359;BME280;30077;52.474;13.326;2022-11-20T22:09:35;99999.97;;;-1.77;100.00
44359;BME280;30077;52.474;13.326;2022-11-20T22:14:37;99986.03;;;-1.79;100.00
44359;BME280;30077;52.474;13.326;2022-11-20T22:19:38;99987.78;;;-1.81;100.00
44359;BME280;30077;52.474;13.326;2022-11-20T22:24:39;99982.56;;;-1.86;100.00
44359;BME280;30077;52.474;13.326;2022-11-20T22:29:39;99975.63;;;-1.88;100.00
44359;BME280;30077;52.474;13.326;2022-11-20T22:34:40;99972.16;;;-1.90;100.00
44359;BME280;30077;52.474;13.326;2022-11-20T22:39:40;99966.91;;;-1.90;100.00
44359;BME280;30077;52.474;13.326;2022-11-20T22:44:40;99959.97;;;-1.95;100.00
44359;BME280;30077;52.474;13.326;2022-11-20T22:49:40;99951.25;;;-1.97;100.00
44359;BME280;30077;52.474;13.326;2022-11-20T22:54:41;99938.22;;;-1.98;100.00
44359;BME280;30077;52.474;13.326;2022-11-20T22:59:41;99939.06;;;-1.98;100.00
44359;BME280;30077;52.474;13.326;2022-11-20T23:04:41;99938.13;;;-1.86;100.00
44359;BME280;30077;52.474;13.326;2022-11-20T23:09:42;99937.19;;;-1.74;100.00
44359;BME280;30077;52.474;13.326;2022-11-20T23:14:42;99934.47;;;-1.59;100.00
44359;BME280;30077;52.474;13.326;2022-11-20T23:19:43;99923.91;;;-1.47;100.00
44359;BME280;30077;52.474;13.326;2022-11-20T23:24:43;99933.41;;;-1.33;100.00
44359;BME280;30077;52.474;13.326;2022-11-20T23:29:44;99919.25;;;-1.14;100.00
44359;BME280;30077;52.474;13.326;2022-11-20T23:34:44;99914.00;;;-1.14;100.00
44359;BME280;30077;52.474;13.326;2022-11-20T23:39:44;99904.41;;;-1.13;100.00
44359;BME280;30077;52.474;13.326;2022-11-20T23:44:45;99910.50;;;-1.11;100.00
44359;BME280;30077;52.474;13.326;2022-11-20T23:49:46;99900.00;;;-1.08;100.00
44359;BME280;30077;52.474;13.326;2022-11-20T23:54:46;99892.13;;;-1.05;100.00
44359;BME280;30077;52.474;13.326;2022-11-20T23:59:49;99883.38;;;-1.04;100.00
